createdAt,value
2022-10-22T00:01:47.050Z,10.83
2022-10-22T00:04:50.928Z,10.85
2022-10-22T00:07:58.549Z,10.78
2022-10-22T00:11:20.758Z,10.70
2022-10-22T00:14:42.977Z,10.69
2022-10-22T00:17:59.027Z,10.74
2022-10-22T00:21:18.911Z,10.73
2022-10-22T00:24:47.645Z,10.75
2022-10-22T00:27:57.662Z,10.74
2022-10-22T00:31:19.852Z,10.73
2022-10-22T00:34:41.655Z,10.74
2022-10-22T00:38:04.874Z,10.76
2022-10-22T00:41:21.449Z,10.76
2022-10-22T00:45:07.942Z,10.79
2022-10-22T00:48:24.777Z,10.70
2022-10-22T00:51:48.836Z,10.69
2022-10-22T00:55:15.798Z,10.66
2022-10-22T00:58:33.835Z,10.68
2022-10-22T01:01:50.226Z,10.69
2022-10-22T01:04:59.650Z,10.72
2022-10-22T01:08:34.828Z,10.70
2022-10-22T01:12:16.001Z,10.63
2022-10-22T01:15:35.982Z,10.65
2022-10-22T01:18:55.887Z,10.61
2022-10-22T01:22:15.014Z,10.66
2022-10-22T01:25:37.917Z,10.59
2022-10-22T01:29:04.802Z,10.54
2022-10-22T01:32:25.999Z,10.55
2022-10-22T01:35:43.870Z,10.54
2022-10-22T01:39:05.775Z,10.55
2022-10-22T01:42:26.789Z,10.61
2022-10-22T01:45:48.999Z,10.58
2022-10-22T01:49:26.000Z,10.47
2022-10-22T01:53:30.533Z,10.43
2022-10-22T01:57:03.538Z,10.48
2022-10-22T02:00:14.365Z,10.52
2022-10-22T02:03:43.664Z,10.41
2022-10-22T02:06:50.454Z,10.40
2022-10-22T02:10:15.315Z,10.46
2022-10-22T02:13:38.659Z,10.44
2022-10-22T02:17:01.342Z,10.43
2022-10-22T02:20:29.417Z,10.34
2022-10-22T02:23:51.428Z,10.33
2022-10-22T02:27:16.574Z,10.18
2022-10-22T02:30:21.766Z,10.16
2022-10-22T02:33:37.341Z,10.16
2022-10-22T02:37:01.652Z,10.11
2022-10-22T02:40:37.332Z,10.12
2022-10-22T02:44:11.774Z,10.07
2022-10-22T02:47:25.579Z,10.07
2022-10-22T02:50:46.368Z,9.89
2022-10-22T02:54:01.875Z,9.78
2022-10-22T02:57:17.836Z,9.69
2022-10-22T03:00:44.686Z,9.57
2022-10-22T03:04:01.225Z,9.59
2022-10-22T03:07:23.523Z,9.44
2022-10-22T03:10:59.559Z,9.35
2022-10-22T03:14:21.484Z,9.47
2022-10-22T03:17:37.638Z,9.39
2022-10-22T03:21:00.461Z,9.42
2022-10-22T03:24:43.931Z,9.40
2022-10-22T03:27:54.588Z,9.35
2022-10-22T03:31:15.406Z,9.40
2022-10-22T03:34:36.404Z,9.30
2022-10-22T03:37:58.941Z,9.16
2022-10-22T03:41:22.550Z,9.24
2022-10-22T03:44:44.448Z,9.20
2022-10-22T03:48:00.519Z,9.18
2022-10-22T03:51:21.416Z,9.20
2022-10-22T03:54:51.398Z,9.19
2022-10-22T03:58:15.431Z,9.16
2022-10-22T04:01:37.521Z,9.12
2022-10-22T04:04:58.427Z,9.16
2022-10-22T04:08:18.518Z,9.24
2022-10-22T04:11:41.546Z,9.16
2022-10-22T04:15:05.341Z,9.15
2022-10-22T04:18:24.507Z,9.21
2022-10-22T04:21:45.522Z,9.18
2022-10-22T04:25:05.453Z,9.11
2022-10-22T04:28:25.540Z,8.99
2022-10-22T04:31:45.391Z,8.97
2022-10-22T04:35:05.388Z,9.00
2022-10-22T04:38:15.366Z,9.04
2022-10-22T04:41:20.659Z,9.06
2022-10-22T04:44:30.169Z,8.97
2022-10-22T04:47:53.301Z,8.97
2022-10-22T04:51:16.082Z,8.90
2022-10-22T04:54:38.235Z,8.85
2022-10-22T04:58:03.047Z,8.91
2022-10-22T05:01:23.192Z,8.79
2022-10-22T05:04:46.159Z,8.83
2022-10-22T05:08:08.014Z,8.85
2022-10-22T05:11:28.329Z,8.81
2022-10-22T05:14:32.056Z,8.82
2022-10-22T05:17:37.745Z,8.76
2022-10-22T05:20:42.820Z,8.79
2022-10-22T05:23:47.334Z,8.82
2022-10-22T05:26:57.530Z,8.88
2022-10-22T05:30:00.294Z,8.87
2022-10-22T05:33:24.132Z,8.88
2022-10-22T05:36:37.996Z,8.79
2022-10-22T05:40:01.845Z,8.79
2022-10-22T05:43:34.104Z,8.85
2022-10-22T05:46:57.118Z,8.96
2022-10-22T05:50:08.058Z,8.91
2022-10-22T05:53:18.980Z,8.93
2022-10-22T05:56:23.566Z,8.84
2022-10-22T05:59:39.354Z,8.88
2022-10-22T06:02:57.088Z,8.85
2022-10-22T06:06:30.835Z,8.99
2022-10-22T06:09:48.749Z,8.98
2022-10-22T06:13:03.264Z,9.04
2022-10-22T06:16:19.250Z,9.09
2022-10-22T06:19:49.132Z,9.19
2022-10-22T06:23:05.052Z,9.16
2022-10-22T06:26:42.023Z,9.15
2022-10-22T06:30:04.071Z,9.25
2022-10-22T06:33:06.827Z,9.39
2022-10-22T06:36:15.735Z,9.48
2022-10-22T06:39:22.897Z,9.42
2022-10-22T06:42:36.088Z,9.46
2022-10-22T06:45:56.151Z,9.56
2022-10-22T06:49:18.200Z,9.68
2022-10-22T06:52:34.720Z,9.79
2022-10-22T06:55:56.363Z,9.98
2022-10-22T06:59:20.107Z,10.07
2022-10-22T07:02:41.458Z,10.26
2022-10-22T07:05:58.003Z,10.47
2022-10-22T07:12:46.041Z,10.67
2022-10-22T07:16:02.018Z,10.72
2022-10-22T07:19:09.291Z,10.64
2022-10-22T07:22:13.449Z,10.50
2022-10-22T07:25:28.947Z,10.48
2022-10-22T07:28:56.857Z,10.62
2022-10-22T07:32:24.022Z,10.69
2022-10-22T07:35:26.884Z,10.76
2022-10-22T07:38:31.687Z,10.69
2022-10-22T07:41:34.629Z,10.65
2022-10-22T07:44:37.707Z,10.66
2022-10-22T07:47:43.350Z,10.71
2022-10-22T07:50:53.781Z,10.72
2022-10-22T07:54:15.683Z,10.76
2022-10-22T07:57:38.877Z,10.91
2022-10-22T08:01:01.038Z,11.03
2022-10-22T08:04:11.553Z,11.25
2022-10-22T08:11:01.803Z,11.61
2022-10-22T08:14:16.764Z,11.64
2022-10-22T08:17:40.322Z,11.83
2022-10-22T08:21:07.850Z,12.16
2022-10-22T08:24:30.809Z,12.65
2022-10-22T08:27:59.768Z,13.08
2022-10-22T08:31:23.009Z,13.32
2022-10-22T08:34:43.864Z,13.49
2022-10-22T08:38:06.877Z,13.47
2022-10-22T08:41:37.032Z,13.72
2022-10-22T08:45:04.246Z,13.72
2022-10-22T08:48:43.707Z,13.49
2022-10-22T08:51:48.048Z,13.51
2022-10-22T08:55:01.046Z,13.52
2022-10-22T08:58:31.222Z,13.42
2022-10-22T09:01:38.905Z,13.28
2022-10-22T09:05:00.930Z,12.97
2022-10-22T09:08:12.861Z,13.23
2022-10-22T09:11:35.690Z,13.29
2022-10-22T09:15:04.914Z,13.02
2022-10-22T09:18:50.561Z,13.21
2022-10-22T09:22:14.884Z,13.38
2022-10-22T09:25:27.443Z,13.46
2022-10-22T09:28:34.177Z,13.54
2022-10-22T09:31:46.864Z,13.50
2022-10-22T09:34:55.474Z,13.64
2022-10-22T09:38:08.214Z,13.61
2022-10-22T09:41:24.545Z,13.59
2022-10-22T09:44:47.849Z,13.80
2022-10-22T09:48:13.534Z,13.79
2022-10-22T09:51:40.403Z,13.88
2022-10-22T09:54:53.647Z,13.91
2022-10-22T09:58:14.375Z,13.97
2022-10-22T10:01:38.470Z,14.14
2022-10-22T10:04:57.369Z,14.16
2022-10-22T10:08:15.339Z,14.38
2022-10-22T10:11:54.652Z,14.46
2022-10-22T10:15:15.116Z,14.50
2022-10-22T10:18:28.722Z,14.57
2022-10-22T10:22:00.734Z,14.68
2022-10-22T10:25:21.429Z,14.78
2022-10-22T10:28:48.959Z,14.89
2022-10-22T10:31:57.714Z,14.70
2022-10-22T10:35:19.496Z,14.74
2022-10-22T10:38:41.500Z,14.79
2022-10-22T10:42:05.032Z,14.79
2022-10-22T10:45:38.341Z,14.97
2022-10-22T10:48:48.637Z,14.89
2022-10-22T10:52:10.615Z,15.03
2022-10-22T10:55:33.455Z,15.05
2022-10-22T10:58:57.663Z,15.05
2022-10-22T11:02:28.627Z,15.29
2022-10-22T11:05:39.418Z,15.46
2022-10-22T11:09:02.593Z,15.31
2022-10-22T11:12:16.572Z,15.25
2022-10-22T11:15:40.746Z,15.24
2022-10-22T11:19:22.738Z,15.20
2022-10-22T11:22:44.385Z,15.08
2022-10-22T11:25:56.793Z,15.11
2022-10-22T11:29:16.546Z,15.07
2022-10-22T11:32:31.557Z,14.80
2022-10-22T11:35:44.725Z,14.99
2022-10-22T11:38:48.722Z,15.11
2022-10-22T11:42:06.066Z,15.18
2022-10-22T11:45:20.545Z,15.36
2022-10-22T11:48:37.879Z,15.51
2022-10-22T11:51:54.276Z,15.48
2022-10-22T11:55:37.077Z,15.45
2022-10-22T11:58:52.232Z,15.49
2022-10-22T12:02:40.511Z,15.58
2022-10-22T12:05:46.173Z,15.95
2022-10-22T12:08:54.684Z,16.08
2022-10-22T12:12:15.485Z,15.96
2022-10-22T12:15:27.912Z,15.99
2022-10-22T12:18:56.301Z,15.81
2022-10-22T12:22:27.077Z,15.64
2022-10-22T12:25:48.168Z,15.55
2022-10-22T12:29:09.246Z,15.51
2022-10-22T12:32:15.293Z,15.38
2022-10-22T12:35:42.161Z,15.27
2022-10-22T12:39:17.055Z,15.11
2022-10-22T12:42:38.251Z,15.00
2022-10-22T12:45:45.023Z,15.07
2022-10-22T12:49:01.271Z,14.96
2022-10-22T12:52:14.048Z,14.81
2022-10-22T12:55:28.030Z,14.74
2022-10-22T12:58:41.735Z,14.69
2022-10-22T13:01:59.395Z,14.74
2022-10-22T13:05:17.748Z,14.65
2022-10-22T13:08:41.168Z,14.70
2022-10-22T13:12:10.062Z,14.65
2022-10-22T13:15:40.870Z,14.64
2022-10-22T13:18:52.570Z,14.60
2022-10-22T13:22:16.240Z,14.59
2022-10-22T13:25:39.677Z,14.61
2022-10-22T13:28:54.763Z,14.61
2022-10-22T13:32:11.185Z,14.65
2022-10-22T13:35:49.596Z,14.60
2022-10-22T13:39:11.604Z,14.62
2022-10-22T13:42:32.612Z,14.59
2022-10-22T13:45:54.751Z,14.56
2022-10-22T13:49:16.578Z,14.53
2022-10-22T13:52:35.857Z,14.57
2022-10-22T13:55:52.483Z,14.60
2022-10-22T13:59:18.536Z,14.65
2022-10-22T14:02:30.540Z,14.68
2022-10-22T14:05:53.197Z,14.67
2022-10-22T14:09:02.401Z,14.66
2022-10-22T14:12:17.670Z,14.65
2022-10-22T14:15:31.055Z,14.65
2022-10-22T14:18:37.398Z,14.60
2022-10-22T14:21:41.341Z,14.61
2022-10-22T14:24:47.391Z,14.55
2022-10-22T14:27:56.687Z,14.50
2022-10-22T14:31:19.855Z,14.50
2022-10-22T14:34:51.855Z,14.42
2022-10-22T14:38:01.783Z,14.36
2022-10-22T14:41:15.993Z,14.35
2022-10-22T14:44:25.593Z,14.45
2022-10-22T14:47:28.763Z,14.47
2022-10-22T14:50:35.636Z,14.53
2022-10-22T14:53:41.301Z,14.55
2022-10-22T14:56:50.257Z,14.49
2022-10-22T15:00:05.982Z,14.40
2022-10-22T15:03:26.790Z,14.38
2022-10-22T15:06:50.988Z,14.33
2022-10-22T15:10:13.859Z,14.27
2022-10-22T15:13:37.852Z,14.22
2022-10-22T15:17:01.974Z,14.06
2022-10-22T15:20:21.961Z,13.94
2022-10-22T15:23:25.830Z,13.86
2022-10-22T15:26:33.729Z,13.76
2022-10-22T15:29:38.809Z,13.60
2022-10-22T15:32:55.147Z,13.58
2022-10-22T15:36:16.494Z,13.52
2022-10-22T15:39:40.839Z,13.38
2022-10-22T15:42:44.251Z,13.27
2022-10-22T15:46:08.218Z,13.27
2022-10-22T15:49:13.187Z,13.24
2022-10-22T15:52:26.440Z,13.17
2022-10-22T15:55:39.849Z,13.10
2022-10-22T15:58:53.897Z,12.96
2022-10-22T16:01:58.049Z,12.77
2022-10-22T16:05:02.947Z,12.76
2022-10-22T16:08:25.341Z,12.69
2022-10-22T16:11:48.864Z,12.66
2022-10-22T16:15:10.289Z,12.55
2022-10-22T16:18:26.726Z,12.45
2022-10-22T16:21:47.658Z,12.37
2022-10-22T16:25:17.648Z,12.29
2022-10-22T16:28:43.376Z,12.24
2022-10-22T16:32:05.368Z,12.20
2022-10-22T16:35:15.887Z,12.08
2022-10-22T16:38:34.816Z,12.07
2022-10-22T16:41:44.211Z,12.05
2022-10-22T16:44:48.302Z,11.97
2022-10-22T16:48:06.019Z,11.88
2022-10-22T16:51:17.405Z,11.87
2022-10-22T16:54:27.657Z,11.80
2022-10-22T16:57:32.049Z,11.76
2022-10-22T17:00:45.867Z,11.70
2022-10-22T17:04:04.708Z,11.60
2022-10-22T17:07:14.339Z,11.55
2022-10-22T17:10:37.527Z,11.49
2022-10-22T17:14:11.410Z,11.43
2022-10-22T17:17:33.796Z,11.41
2022-10-22T17:20:58.073Z,11.37
2022-10-22T17:24:17.637Z,11.36
2022-10-22T17:27:26.163Z,11.32
2022-10-22T17:30:49.479Z,11.29
2022-10-22T17:34:25.547Z,11.28
2022-10-22T17:37:39.436Z,11.29
2022-10-22T17:41:06.966Z,11.27
2022-10-22T17:44:34.758Z,11.25
2022-10-22T17:47:57.561Z,11.27
2022-10-22T17:51:15.603Z,11.24
2022-10-22T17:54:36.549Z,11.25
2022-10-22T17:57:39.932Z,11.29
2022-10-22T18:00:47.673Z,11.35
2022-10-22T18:04:30.536Z,11.31
2022-10-22T18:08:04.397Z,11.30
2022-10-22T18:11:28.631Z,11.33
2022-10-22T18:14:50.419Z,11.34
2022-10-22T18:18:10.543Z,11.30
2022-10-22T18:21:26.660Z,11.34
2022-10-22T18:24:29.827Z,11.38
2022-10-22T18:27:34.760Z,11.50
2022-10-22T18:30:57.132Z,11.51
2022-10-22T18:34:07.567Z,11.52
2022-10-22T18:37:29.862Z,11.60
2022-10-22T18:40:59.526Z,11.60
2022-10-22T18:44:25.100Z,11.55
2022-10-22T18:47:48.273Z,11.58
2022-10-22T18:51:13.153Z,11.53
2022-10-22T18:54:24.158Z,11.51
2022-10-22T18:57:41.986Z,11.45
2022-10-22T19:01:05.395Z,11.44
2022-10-22T19:04:41.137Z,11.37
2022-10-22T19:07:44.472Z,11.34
2022-10-22T19:10:51.834Z,11.33
2022-10-22T19:13:58.260Z,11.28
2022-10-22T19:17:22.285Z,11.18
2022-10-22T19:20:38.657Z,11.10
2022-10-22T19:24:10.180Z,11.04
2022-10-22T19:27:40.405Z,11.01
2022-10-22T19:30:50.797Z,10.99
2022-10-22T19:33:57.525Z,10.89
2022-10-22T19:37:04.856Z,10.75
2022-10-22T19:40:09.386Z,10.73
2022-10-22T19:43:14.395Z,10.64
2022-10-22T19:46:22.298Z,10.66
2022-10-22T19:49:43.336Z,10.61
2022-10-22T19:53:10.223Z,10.54
2022-10-22T19:56:49.266Z,10.52
2022-10-22T20:00:07.202Z,10.47
2022-10-22T20:03:36.398Z,10.64
2022-10-22T20:07:02.898Z,10.56
2022-10-22T20:10:22.409Z,10.60
2022-10-22T20:13:48.285Z,10.62
2022-10-22T20:17:11.229Z,10.68
2022-10-22T20:20:26.425Z,10.67
2022-10-22T20:23:51.358Z,10.70
2022-10-22T20:27:05.560Z,10.73
2022-10-22T20:30:29.306Z,10.76
2022-10-22T20:33:51.379Z,10.75
2022-10-22T20:37:15.202Z,10.78
2022-10-22T20:40:41.251Z,10.76
2022-10-22T20:44:03.273Z,10.79
2022-10-22T20:47:19.277Z,10.78
2022-10-22T20:50:25.215Z,10.72
2022-10-22T20:53:28.752Z,10.63
2022-10-22T20:56:32.706Z,10.61
2022-10-22T20:59:43.630Z,10.56
2022-10-22T21:02:48.411Z,10.50
2022-10-22T21:06:04.381Z,10.52
2022-10-22T21:09:15.367Z,10.63
2022-10-22T21:12:28.174Z,10.65
2022-10-22T21:15:35.373Z,10.63
2022-10-22T21:18:42.950Z,10.70
2022-10-22T21:22:04.808Z,10.72
2022-10-22T21:25:27.979Z,10.74
2022-10-22T21:28:46.923Z,10.72
2022-10-22T21:32:10.189Z,10.69
2022-10-22T21:35:31.906Z,10.88
2022-10-22T21:38:47.974Z,10.82
2022-10-22T21:42:01.836Z,10.88
2022-10-22T21:45:31.837Z,10.89
2022-10-22T21:48:59.858Z,11.01
2022-10-22T21:52:20.210Z,11.00
2022-10-22T21:55:45.913Z,10.82
2022-10-22T21:59:07.825Z,10.62
2022-10-22T22:02:28.911Z,10.46
2022-10-22T22:05:52.171Z,10.33
2022-10-22T22:09:11.912Z,10.27
2022-10-22T22:12:34.874Z,10.18
2022-10-22T22:15:55.851Z,10.26
2022-10-22T22:19:08.986Z,10.17
2022-10-22T22:22:32.025Z,10.18
2022-10-22T22:26:04.010Z,10.26
2022-10-22T22:29:21.947Z,10.08
2022-10-22T22:32:37.847Z,10.14
2022-10-22T22:36:07.913Z,10.05
2022-10-22T22:39:26.961Z,9.97
2022-10-22T22:42:50.929Z,9.93
2022-10-22T22:46:16.390Z,10.00
2022-10-22T22:49:43.983Z,10.22
2022-10-22T22:53:06.984Z,10.31
2022-10-22T22:56:32.664Z,10.42
2022-10-22T22:59:47.099Z,10.45
2022-10-22T23:02:55.526Z,10.56
2022-10-22T23:06:19.825Z,10.63
2022-10-22T23:09:39.835Z,10.67
2022-10-22T23:12:55.790Z,10.69
2022-10-22T23:16:13.731Z,10.76
2022-10-22T23:19:23.167Z,10.73
2022-10-22T23:22:37.581Z,10.64
2022-10-22T23:25:40.853Z,10.67
2022-10-22T23:29:04.598Z,10.69
2022-10-22T23:32:40.564Z,10.71
2022-10-22T23:36:03.594Z,10.69
2022-10-22T23:39:29.541Z,10.69
2022-10-22T23:42:53.699Z,10.64
2022-10-22T23:46:12.842Z,10.62
2022-10-22T23:49:35.511Z,10.67
2022-10-22T23:52:52.030Z,10.73
2022-10-22T23:56:15.518Z,10.79
2022-10-22T23:59:27.628Z,10.81
